Time;durP1;ratioP1;P1;durP2;ratioP2;P2;SDS_P1;SDS_P2;PMS_P1;PMS_P2;Temp;Humidity;BMP_temperature;BMP_pressure;BME280_temperature;BME280_humidity;BME280_pressure;Samples;Min_cycle;Max_cycle;Signal;HPM_P1;HPM_P2
2022/06/28 00:01:25;;;;;;;1.88;0.88;;;22.60;64.50;;;;;;4493359;31;20215;-68
2022/06/28 00:03:51;;;;;;;2.45;0.80;;;22.60;64.50;;;;;;4493031;31;20088;-68
2022/06/28 00:06:17;;;;;;;1.73;0.90;;;22.60;64.50;;;;;;4492969;31;20130;-68
2022/06/28 00:08:42;;;;;;;1.73;0.90;;;22.60;64.50;;;;;;4492869;31;20077;-68
2022/06/28 00:11:08;;;;;;;2.17;1.00;;;22.60;64.50;;;;;;4492969;31;20138;-69
2022/06/28 00:13:34;;;;;;;1.73;1.02;;;22.60;64.40;;;;;;4492981;31;20150;-68
2022/06/28 00:16:06;;;;;;;3.83;1.10;;;22.60;64.40;;;;;;4493076;31;20345;-68
2022/06/28 00:18:42;;;;;;;1.95;0.88;;;22.60;64.40;;;;;;4493432;31;20380;-68
2022/06/28 00:21:08;;;;;;;2.58;1.00;;;22.50;64.30;;;;;;4493187;31;20093;-68
2022/06/28 00:23:36;;;;;;;2.03;1.05;;;22.50;64.30;;;;;;4492631;31;20129;-68
2022/06/28 00:26:02;;;;;;;1.60;0.85;;;22.50;64.40;;;;;;4493116;31;20065;-68
2022/06/28 00:28:28;;;;;;;1.73;0.93;;;22.50;64.30;;;;;;4492649;31;20219;-68
2022/06/28 00:30:54;;;;;;;3.22;1.10;;;22.50;64.30;;;;;;4492698;31;20065;-68
2022/06/28 00:33:20;;;;;;;1.75;0.93;;;22.50;64.30;;;;;;4492864;31;20152;-69
2022/06/28 00:35:46;;;;;;;1.90;0.65;;;22.50;64.30;;;;;;4492911;31;20084;-69
2022/06/28 00:38:13;;;;;;;1.75;0.80;;;22.50;64.30;;;;;;4492731;31;20285;-69
2022/06/28 00:40:51;;;;;;;1.98;0.90;;;22.50;64.30;;;;;;4492264;31;20080;-68
2022/06/28 00:43:19;;;;;;;1.52;0.73;;;22.50;64.30;;;;;;4492046;31;20203;-68
2022/06/28 00:45:46;;;;;;;1.38;0.80;;;22.50;64.30;;;;;;4492425;31;20247;-68
2022/06/28 00:48:15;;;;;;;1.17;0.75;;;22.50;64.20;;;;;;4492448;31;20158;-70
2022/06/28 00:50:41;;;;;;;1.05;0.70;;;22.50;64.30;;;;;;4492519;31;20121;-68
2022/06/28 00:53:15;;;;;;;1.80;0.80;;;22.50;64.20;;;;;;4492695;31;20127;-68
2022/06/28 00:55:43;;;;;;;1.77;0.77;;;22.50;64.20;;;;;;4492689;31;20111;-68
2022/06/28 00:58:09;;;;;;;3.03;0.90;;;22.50;64.20;;;;;;4492349;31;20174;-68
2022/06/28 01:00:41;;;;;;;2.30;0.90;;;22.50;64.20;;;;;;4492295;31;20202;-68
2022/06/28 01:03:09;;;;;;;1.30;0.73;;;22.50;64.10;;;;;;4492652;31;20097;-69
2022/06/28 01:05:36;;;;;;;0.93;0.80;;;22.40;64.10;;;;;;4492472;31;20526;-68
2022/06/28 01:08:05;;;;;;;0.98;0.75;;;22.40;64.10;;;;;;4492380;31;20137;-68
2022/06/28 01:10:31;;;;;;;1.70;0.82;;;22.40;64.10;;;;;;4492176;31;20101;-68
2022/06/28 01:12:57;;;;;;;1.48;0.70;;;22.40;64.10;;;;;;4492208;31;20077;-68
2022/06/28 01:15:23;;;;;;;1.50;0.80;;;22.40;64.00;;;;;;4492059;31;20077;-68
2022/06/28 01:17:49;;;;;;;2.13;0.80;;;22.40;64.10;;;;;;4492268;31;20473;-68
2022/06/28 01:20:15;;;;;;;2.58;0.73;;;22.40;64.00;;;;;;4492044;31;20069;-68
2022/06/28 01:22:42;;;;;;;1.10;0.70;;;22.40;64.00;;;;;;4491769;31;20493;-68
2022/06/28 01:25:09;;;;;;;1.27;0.75;;;22.40;64.00;;;;;;4492021;31;20095;-68
2022/06/28 01:27:36;;;;;;;3.88;0.80;;;22.40;64.00;;;;;;4491912;31;20089;-68
2022/06/28 01:30:03;;;;;;;3.83;0.65;;;22.40;64.00;;;;;;4492017;31;20174;-68
2022/06/28 01:32:29;;;;;;;1.48;0.70;;;22.40;64.00;;;;;;4492202;31;20081;-68
2022/06/28 01:34:55;;;;;;;1.58;0.77;;;22.40;64.00;;;;;;4491953;31;20080;-68
2022/06/28 01:37:22;;;;;;;0.80;0.60;;;22.40;64.00;;;;;;4492142;31;20313;-68
2022/06/28 01:39:48;;;;;;;1.73;0.70;;;22.40;64.00;;;;;;4491891;31;20181;-73
2022/06/28 01:42:14;;;;;;;2.05;0.90;;;22.40;64.00;;;;;;4492509;32;20449;-69
2022/06/28 01:44:41;;;;;;;3.67;0.80;;;22.40;64.00;;;;;;4491767;32;20099;-68
2022/06/28 01:47:11;;;;;;;1.33;0.75;;;22.40;64.00;;;;;;4491728;32;20084;-68
2022/06/28 01:49:38;;;;;;;1.02;0.60;;;22.40;64.00;;;;;;4492170;32;20085;-69
2022/06/28 01:52:04;;;;;;;0.98;0.70;;;22.30;63.90;;;;;;4491581;31;20081;-68
2022/06/28 01:54:30;;;;;;;1.13;0.60;;;22.30;63.90;;;;;;4494856;31;20554;-68
2022/06/28 01:56:56;;;;;;;1.33;0.75;;;22.30;63.90;;;;;;4495293;31;20202;-68
2022/06/28 01:59:23;;;;;;;1.67;0.60;;;22.30;63.90;;;;;;4495222;31;20095;-68
2022/06/28 02:01:50;;;;;;;1.00;0.70;;;22.30;63.90;;;;;;4494677;31;20069;-68
2022/06/28 02:04:27;;;;;;;1.52;0.70;;;22.30;63.90;;;;;;4494924;31;20081;-68
2022/06/28 02:06:53;;;;;;;0.73;0.50;;;22.30;63.90;;;;;;4494691;31;20533;-68
2022/06/28 02:09:20;;;;;;;1.45;0.70;;;22.30;63.90;;;;;;4495036;31;20073;-68
2022/06/28 02:11:45;;;;;;;1.45;0.88;;;22.30;63.90;;;;;;4495053;31;20215;-68
2022/06/28 02:14:12;;;;;;;1.40;0.50;;;22.30;63.80;;;;;;4494765;31;20109;-68
2022/06/28 02:16:37;;;;;;;0.57;0.43;;;22.30;63.80;;;;;;4494648;31;20087;-68
2022/06/28 02:19:04;;;;;;;0.90;0.52;;;22.30;63.90;;;;;;4494748;31;20065;-69
2022/06/28 02:21:42;;;;;;;1.67;0.60;;;22.30;63.80;;;;;;4494693;31;20083;-68
2022/06/28 02:24:09;;;;;;;1.90;0.75;;;22.30;63.80;;;;;;4493643;31;20092;-68
2022/06/28 02:26:35;;;;;;;0.82;0.50;;;22.30;63.80;;;;;;4494652;31;20194;-68
2022/06/28 02:29:03;;;;;;;1.45;0.70;;;22.20;63.80;;;;;;4494550;31;20182;-68
2022/06/28 02:31:30;;;;;;;1.67;0.60;;;22.20;63.80;;;;;;4494559;31;20091;-68
2022/06/28 02:33:56;;;;;;;1.90;0.50;;;22.20;63.80;;;;;;4494284;31;20087;-68
2022/06/28 02:41:57;;;;;;;1.63;0.70;;;22.20;63.80;;;;;;4471438;31;20072;-68
2022/06/28 02:44:23;;;;;;;0.88;0.60;;;22.20;63.80;;;;;;4494239;31;20069;-68
2022/06/28 02:46:48;;;;;;;1.48;0.70;;;22.20;63.80;;;;;;4494568;31;20206;-68
2022/06/28 02:49:15;;;;;;;1.23;0.63;;;22.20;63.70;;;;;;4494256;31;20091;-68
2022/06/28 02:51:42;;;;;;;1.60;0.52;;;22.20;63.70;;;;;;4494297;31;20442;-68
2022/06/28 02:54:08;;;;;;;1.02;0.50;;;22.20;63.70;;;;;;4494199;31;20085;-68
2022/06/28 02:56:34;;;;;;;1.10;0.60;;;22.20;63.70;;;;;;4494174;31;20540;-68
2022/06/28 02:59:00;;;;;;;1.35;0.65;;;22.20;63.70;;;;;;4494156;31;20085;-68
2022/06/28 03:01:26;;;;;;;1.70;0.88;;;22.20;63.70;;;;;;4494105;31;20072;-68
2022/06/28 03:03:57;;;;;;;0.73;0.52;;;22.20;63.70;;;;;;4493511;31;20210;-68
2022/06/28 03:06:23;;;;;;;1.02;0.52;;;22.20;63.60;;;;;;4494034;31;20062;-68
2022/06/28 03:08:48;;;;;;;0.70;0.50;;;22.20;63.60;;;;;;4494148;31;20509;-68
2022/06/28 03:11:14;;;;;;;0.95;0.47;;;22.10;63.60;;;;;;4493927;31;20489;-68
2022/06/28 03:13:40;;;;;;;0.90;0.57;;;22.20;63.60;;;;;;4492688;31;20112;-68
2022/06/28 03:16:06;;;;;;;0.85;0.50;;;22.10;63.60;;;;;;4494073;31;20211;-68
2022/06/28 03:18:32;;;;;;;1.08;0.50;;;22.10;63.50;;;;;;4493861;31;20485;-68
2022/06/28 03:20:58;;;;;;;0.93;0.40;;;22.10;63.60;;;;;;4494206;31;20219;-68
2022/06/28 03:23:23;;;;;;;1.52;0.70;;;22.10;63.50;;;;;;4492702;31;20105;-68
2022/06/28 03:25:49;;;;;;;0.70;0.60;;;22.10;63.50;;;;;;4493722;31;20057;-68
2022/06/28 03:28:15;;;;;;;1.25;0.80;;;22.10;63.50;;;;;;4493643;31;20388;-68
2022/06/28 03:30:41;;;;;;;1.48;0.70;;;22.10;63.60;;;;;;4493716;31;20431;-68
2022/06/28 03:33:07;;;;;;;1.23;0.75;;;22.10;63.50;;;;;;4493657;31;20409;-68
2022/06/28 03:35:32;;;;;;;0.88;0.52;;;22.10;63.50;;;;;;4493825;31;20085;-68
2022/06/28 03:37:58;;;;;;;1.00;0.50;;;22.10;63.50;;;;;;4492519;31;20450;-69
2022/06/28 03:40:24;;;;;;;1.13;0.60;;;22.10;63.60;;;;;;4493806;31;20065;-68
2022/06/28 03:42:50;;;;;;;1.40;0.75;;;22.10;63.50;;;;;;4493421;31;20116;-68
2022/06/28 03:45:16;;;;;;;1.08;0.60;;;22.10;63.50;;;;;;4493527;31;20203;-68
2022/06/28 03:47:42;;;;;;;0.93;0.50;;;22.10;63.50;;;;;;4493271;31;20418;-68
2022/06/28 03:50:09;;;;;;;1.02;0.55;;;22.10;63.50;;;;;;4493153;31;20069;-68
2022/06/28 03:52:35;;;;;;;0.82;0.60;;;22.00;63.40;;;;;;4493346;31;20628;-68
2022/06/28 03:55:00;;;;;;;1.17;0.60;;;22.10;63.50;;;;;;4493036;31;20099;-66
2022/06/28 03:57:26;;;;;;;0.60;0.50;;;22.10;63.50;;;;;;4493322;31;20161;-68
2022/06/28 03:59:55;;;;;;;1.52;0.52;;;22.10;63.50;;;;;;4493580;31;20089;-68
2022/06/28 04:02:21;;;;;;;1.00;0.50;;;22.00;63.40;;;;;;4493198;31;20113;-68
2022/06/28 04:04:47;;;;;;;0.90;0.60;;;22.00;63.40;;;;;;4493255;31;20061;-68
2022/06/28 04:07:13;;;;;;;0.75;0.47;;;22.00;63.50;;;;;;4493295;31;20606;-68
2022/06/28 04:09:39;;;;;;;0.70;0.40;;;22.00;64.30;;;;;;4493146;31;20414;-68
2022/06/28 04:12:05;;;;;;;1.55;0.63;;;22.00;63.40;;;;;;4493100;31;20203;-68
2022/06/28 04:14:31;;;;;;;1.10;0.60;;;22.00;63.40;;;;;;4493170;31;20550;-68
2022/06/28 04:16:57;;;;;;;0.93;0.40;;;22.00;63.40;;;;;;4492340;31;20083;-68
2022/06/28 04:19:23;;;;;;;2.20;0.60;;;22.00;63.50;;;;;;4491981;31;20065;-68
2022/06/28 04:21:49;;;;;;;1.50;0.52;;;22.00;63.50;;;;;;4492930;31;20154;-68
2022/06/28 04:24:14;;;;;;;1.98;0.90;;;22.00;63.40;;;;;;4492653;31;20075;-68
2022/06/28 04:26:40;;;;;;;0.75;0.40;;;22.00;63.40;;;;;;4493161;31;20069;-68
2022/06/28 04:29:06;;;;;;;1.30;0.60;;;22.00;63.40;;;;;;4492755;31;20071;-68
2022/06/28 04:31:33;;;;;;;0.95;0.52;;;22.00;63.40;;;;;;4493061;31;20083;-68
2022/06/28 04:33:59;;;;;;;0.65;0.40;;;22.00;63.40;;;;;;4492769;31;20100;-68
2022/06/28 04:36:26;;;;;;;1.15;0.52;;;22.00;64.30;;;;;;4492676;31;20065;-68
2022/06/28 04:38:53;;;;;;;0.60;0.38;;;22.00;63.40;;;;;;4491594;31;20536;-68
2022/06/28 04:41:23;;;;;;;1.25;0.68;;;22.00;63.40;;;;;;4492340;31;20166;-68
2022/06/28 04:43:56;;;;;;;0.77;0.30;;;22.00;63.40;;;;;;4492326;31;20185;-67
2022/06/28 04:46:22;;;;;;;0.98;0.50;;;22.00;63.40;;;;;;4492862;31;20132;-68
2022/06/28 04:48:48;;;;;;;0.50;0.40;;;22.00;63.40;;;;;;4492444;31;20269;-68
2022/06/28 04:51:15;;;;;;;0.50;0.47;;;22.00;63.40;;;;;;4491409;31;20107;-68
2022/06/28 04:53:47;;;;;;;0.80;0.45;;;21.90;63.30;;;;;;4493213;31;20215;-68
2022/06/28 04:56:14;;;;;;;0.57;0.50;;;21.90;63.30;;;;;;4492468;31;20125;-68
2022/06/28 04:58:40;;;;;;;0.63;0.40;;;22.00;63.40;;;;;;4492399;31;20065;-68
2022/06/28 05:01:06;;;;;;;1.27;0.63;;;21.90;63.30;;;;;;4492181;31;20526;-68
2022/06/28 05:03:32;;;;;;;1.10;0.50;;;21.90;63.30;;;;;;4492410;31;20132;-68
2022/06/28 05:05:58;;;;;;;0.95;0.55;;;21.90;63.40;;;;;;4492415;31;20534;-68
2022/06/28 05:08:24;;;;;;;1.73;0.75;;;21.90;63.30;;;;;;4492169;31;20170;-68
2022/06/28 05:10:50;;;;;;;0.73;0.45;;;21.90;63.30;;;;;;4492001;31;20487;-72
2022/06/28 05:13:16;;;;;;;0.70;0.32;;;21.90;63.30;;;;;;4492525;31;20065;-68
2022/06/28 05:15:41;;;;;;;1.13;0.60;;;21.90;63.30;;;;;;4492192;31;20546;-68
2022/06/28 05:18:07;;;;;;;0.93;0.50;;;21.90;63.30;;;;;;4491907;31;20081;-68
2022/06/28 05:20:34;;;;;;;0.65;0.40;;;21.90;63.30;;;;;;4492487;31;20085;-68
2022/06/28 05:23:00;;;;;;;0.95;0.40;;;21.90;63.30;;;;;;4492144;31;20069;-68
2022/06/28 05:25:25;;;;;;;0.82;0.40;;;21.90;63.30;;;;;;4477947;31;20088;-68
2022/06/28 05:27:52;;;;;;;0.80;0.38;;;21.90;63.30;;;;;;4491578;31;20635;-68
2022/06/28 05:30:18;;;;;;;0.63;0.50;;;21.90;63.30;;;;;;4492120;31;20535;-68
2022/06/28 05:32:44;;;;;;;0.52;0.40;;;21.90;63.30;;;;;;4492317;31;20080;-68
2022/06/28 05:35:10;;;;;;;1.30;0.60;;;21.90;63.30;;;;;;4492270;31;20155;-68
2022/06/28 05:37:36;;;;;;;1.38;0.60;;;21.90;63.30;;;;;;4491980;31;20073;-67
2022/06/28 05:40:02;;;;;;;1.25;0.50;;;21.90;63.30;;;;;;4491926;31;20156;-68
2022/06/28 05:42:28;;;;;;;1.02;0.60;;;22.00;63.30;;;;;;4492184;31;20085;-68
2022/06/28 05:44:54;;;;;;;0.40;0.30;;;22.00;63.30;;;;;;4491812;32;20360;-68
2022/06/28 05:47:20;;;;;;;0.73;0.47;;;22.00;63.30;;;;;;4491986;32;20388;-67
2022/06/28 05:49:46;;;;;;;0.43;0.40;;;22.00;63.30;;;;;;4491874;32;20186;-68
2022/06/28 05:52:12;;;;;;;0.40;0.40;;;22.00;63.30;;;;;;4491830;32;20103;-69
2022/06/28 05:54:38;;;;;;;0.50;0.40;;;22.00;63.30;;;;;;4491904;32;20065;-66
2022/06/28 05:57:04;;;;;;;1.25;0.60;;;22.00;63.20;;;;;;4491850;32;20525;-68
2022/06/28 05:59:32;;;;;;;1.30;0.40;;;22.00;63.20;;;;;;4490820;32;20065;-67
2022/06/28 06:01:58;;;;;;;0.77;0.50;;;22.00;63.20;;;;;;4491820;32;20095;-67
2022/06/28 06:04:25;;;;;;;0.47;0.40;;;22.00;63.20;;;;;;4491490;32;20081;-67
2022/06/28 06:06:52;;;;;;;0.80;0.50;;;22.00;63.20;;;;;;4492044;32;20162;-67
2022/06/28 06:09:18;;;;;;;0.50;0.40;;;22.00;63.30;;;;;;4492039;32;20616;-67
2022/06/28 06:11:44;;;;;;;1.10;0.50;;;22.00;63.20;;;;;;4492403;32;20118;-67
2022/06/28 06:14:10;;;;;;;0.50;0.50;;;22.00;63.20;;;;;;4491914;32;20410;-68
2022/06/28 06:16:36;;;;;;;1.55;0.40;;;22.00;63.20;;;;;;4491444;32;20166;-67
2022/06/28 06:19:02;;;;;;;1.60;0.47;;;22.00;63.20;;;;;;4491719;32;20143;-67
2022/06/28 06:21:28;;;;;;;1.15;0.40;;;22.10;63.10;;;;;;4491994;32;20211;-68
2022/06/28 06:23:54;;;;;;;0.98;0.43;;;22.10;63.20;;;;;;4491705;32;20069;-69
2022/06/28 06:26:20;;;;;;;2.28;0.77;;;22.10;63.30;;;;;;4491635;32;20158;-68
2022/06/28 06:28:46;;;;;;;1.85;0.80;;;22.20;63.40;;;;;;4491267;32;20077;-70
2022/06/28 06:31:12;;;;;;;1.90;0.68;;;22.20;63.40;;;;;;4491594;32;20153;-69
2022/06/28 06:33:38;;;;;;;1.85;0.70;;;22.30;63.40;;;;;;4491610;32;20411;-68
2022/06/28 06:36:04;;;;;;;7.50;0.88;;;22.30;63.60;;;;;;4491851;32;20215;-69
2022/06/28 06:38:30;;;;;;;2.17;0.80;;;22.40;63.60;;;;;;4491864;31;20084;-69
2022/06/28 06:40:58;;;;;;;1.75;0.70;;;22.40;63.70;;;;;;4494466;31;20131;-69
2022/06/28 06:43:28;;;;;;;6.82;0.88;;;22.40;63.70;;;;;;4494222;31;20375;-71
2022/06/28 06:45:54;;;;;;;4.13;0.85;;;22.50;63.80;;;;;;4494742;31;20085;-69
2022/06/28 06:48:23;;;;;;;5.78;0.80;;;22.50;63.60;;;;;;4493918;31;20549;-70
2022/06/28 06:50:49;;;;;;;2.03;0.90;;;22.50;63.60;;;;;;4494303;31;20077;-69
2022/06/28 06:53:18;;;;;;;4.60;0.80;;;22.60;63.60;;;;;;4494268;31;20081;-70
2022/06/28 06:55:46;;;;;;;5.18;1.10;;;22.60;63.60;;;;;;4494240;31;20189;-69
2022/06/28 06:58:13;;;;;;;4.13;0.90;;;22.60;63.60;;;;;;4494204;31;20258;-69
2022/06/28 07:00:39;;;;;;;3.47;0.90;;;22.60;63.60;;;;;;4493859;31;20079;-70
2022/06/28 07:03:06;;;;;;;4.38;0.85;;;22.60;63.50;;;;;;4492852;31;20215;-69
2022/06/28 07:05:32;;;;;;;2.63;0.77;;;22.70;63.50;;;;;;4493814;31;20556;-69
2022/06/28 07:07:58;;;;;;;2.83;0.70;;;22.70;63.40;;;;;;4493993;31;20088;-69
2022/06/28 07:10:24;;;;;;;3.72;0.88;;;22.70;63.40;;;;;;4493974;31;20073;-69
2022/06/28 07:12:50;;;;;;;4.25;0.95;;;22.70;63.30;;;;;;4492939;31;20379;-68
2022/06/28 07:15:15;;;;;;;4.43;0.98;;;22.80;63.40;;;;;;4493917;31;20185;-69
2022/06/28 07:17:42;;;;;;;6.97;1.23;;;22.80;63.30;;;;;;4493808;31;20597;-69
2022/06/28 07:20:08;;;;;;;2.92;0.60;;;22.80;63.30;;;;;;4493858;31;20081;-68
2022/06/28 07:22:34;;;;;;;3.10;1.20;;;22.80;63.40;;;;;;4493863;31;20219;-69
2022/06/28 07:25:00;;;;;;;5.00;1.15;;;22.80;63.30;;;;;;4494032;31;20083;-69
2022/06/28 07:27:27;;;;;;;3.85;0.80;;;22.80;63.30;;;;;;4493950;31;20143;-68
2022/06/28 07:29:53;;;;;;;2.38;0.68;;;22.90;63.30;;;;;;4493686;31;20104;-69
2022/06/28 07:32:19;;;;;;;4.53;0.90;;;22.80;63.10;;;;;;4493896;31;20227;-69
2022/06/28 07:34:45;;;;;;;5.22;1.00;;;22.90;63.20;;;;;;4493909;31;20144;-69
2022/06/28 07:37:11;;;;;;;2.90;0.88;;;22.90;63.20;;;;;;4493704;31;20104;-69
2022/06/28 07:39:38;;;;;;;2.55;0.70;;;22.90;63.10;;;;;;4493375;31;20073;-68
2022/06/28 07:42:04;;;;;;;3.80;0.90;;;22.90;63.10;;;;;;4493596;31;20073;-68
2022/06/28 07:44:30;;;;;;;4.38;0.80;;;22.90;63.10;;;;;;4493510;31;20158;-68
2022/06/28 07:46:56;;;;;;;4.00;0.90;;;22.90;63.10;;;;;;4493115;31;20089;-68
2022/06/28 07:49:22;;;;;;;3.75;0.93;;;22.90;63.00;;;;;;4493267;31;20108;-69
2022/06/28 07:54:33;;;;;;;5.85;1.13;;;22.90;63.00;;;;;;4493651;31;20095;-70
2022/06/28 07:56:59;;;;;;;4.63;1.10;;;23.00;62.90;;;;;;4493355;31;20402;-69
2022/06/28 07:59:24;;;;;;;3.40;1.05;;;23.00;62.90;;;;;;4493374;31;20069;-69
2022/06/28 08:01:50;;;;;;;4.03;0.82;;;23.10;62.90;;;;;;4493106;31;20173;-69
2022/06/28 08:04:16;;;;;;;5.50;0.90;;;23.10;62.90;;;;;;4491870;31;20073;-69
2022/06/28 08:06:43;;;;;;;4.68;0.98;;;23.10;62.80;;;;;;4492929;31;20101;-70
2022/06/28 08:09:09;;;;;;;4.43;0.90;;;23.10;62.80;;;;;;4493030;31;20161;-70
2022/06/28 08:11:34;;;;;;;3.47;1.05;;;23.10;62.70;;;;;;4493300;31;20085;-70
2022/06/28 08:14:00;;;;;;;3.95;0.90;;;23.10;62.70;;;;;;4493102;31;20472;-70
2022/06/28 08:16:27;;;;;;;3.50;0.90;;;23.10;62.60;;;;;;4493050;31;20151;-70
2022/06/28 08:18:52;;;;;;;4.07;1.20;;;23.20;62.60;;;;;;4492646;31;20239;-68
2022/06/28 08:21:18;;;;;;;3.78;1.02;;;23.20;62.50;;;;;;4478770;31;20054;-70
2022/06/28 08:23:44;;;;;;;3.75;0.80;;;23.20;62.50;;;;;;4492868;31;20174;-69
2022/06/28 08:26:10;;;;;;;3.60;1.33;;;23.20;62.40;;;;;;4492950;31;20120;-70
2022/06/28 08:28:36;;;;;;;7.00;1.30;;;23.20;62.50;;;;;;4492460;31;20088;-70
2022/06/28 08:31:01;;;;;;;3.58;0.85;;;23.30;61.70;;;;;;4492521;31;20607;-70
2022/06/28 08:33:27;;;;;;;4.68;1.13;;;23.30;62.40;;;;;;4491740;31;20203;-68
2022/06/28 08:35:53;;;;;;;5.88;1.20;;;23.30;62.30;;;;;;4491876;31;20069;-68
2022/06/28 08:38:19;;;;;;;3.35;0.90;;;23.30;62.20;;;;;;4492932;31;20491;-71
2022/06/28 08:40:45;;;;;;;1.88;0.75;;;23.40;62.20;;;;;;4492440;31;20066;-69
2022/06/28 08:43:11;;;;;;;3.38;0.70;;;23.40;62.10;;;;;;4492390;31;20072;-69
2022/06/28 08:45:37;;;;;;;3.03;0.93;;;23.40;62.10;;;;;;4492671;31;20563;-70
2022/06/28 08:48:17;;;;;;;2.22;0.70;;;23.40;62.20;;;;;;4492684;31;20081;-67
2022/06/28 08:50:51;;;;;;;3.55;0.80;;;23.40;62.10;;;;;;4492568;31;20081;-68
2022/06/28 08:53:20;;;;;;;5.32;0.95;;;23.40;62.10;;;;;;4492714;31;20521;-69
2022/06/28 08:55:48;;;;;;;4.80;0.88;;;23.40;62.00;;;;;;4492478;31;20089;-68
2022/06/28 08:58:14;;;;;;;3.80;1.00;;;23.40;61.90;;;;;;4492206;31;20077;-68
2022/06/28 09:00:40;;;;;;;2.65;0.80;;;23.40;61.70;;;;;;4492389;31;20093;-68
2022/06/28 09:03:06;;;;;;;4.28;0.77;;;23.40;61.50;;;;;;4491964;31;20065;-68
2022/06/28 09:05:32;;;;;;;3.75;0.90;;;23.40;61.40;;;;;;4492329;31;20568;-68
2022/06/28 09:07:58;;;;;;;3.40;0.85;;;23.40;61.50;;;;;;4492110;31;20491;-69
2022/06/28 09:10:24;;;;;;;4.15;0.98;;;23.50;61.60;;;;;;4492243;31;20073;-69
2022/06/28 09:13:03;;;;;;;3.95;0.73;;;23.50;61.60;;;;;;4492188;31;20089;-69
2022/06/28 09:15:54;;;;;;;2.30;0.75;;;23.50;61.30;;;;;;4492506;31;20127;-68
2022/06/28 09:18:26;;;;;;;2.97;0.93;;;23.50;61.20;;;;;;4490665;31;20077;-68
2022/06/28 09:20:56;;;;;;;1.95;0.73;;;23.50;61.20;;;;;;4492097;31;20616;-68
2022/06/28 09:23:25;;;;;;;6.07;0.50;;;23.50;61.10;;;;;;4491709;31;20197;-68
2022/06/28 09:25:52;;;;;;;3.03;0.80;;;23.50;61.00;;;;;;4491802;31;20069;-68
2022/06/28 09:28:30;;;;;;;6.00;0.90;;;23.60;61.00;;;;;;4491726;31;20095;-68
2022/06/28 09:31:28;;;;;;;2.47;1.00;;;23.60;60.50;;;;;;4492027;31;20422;-68
2022/06/28 09:34:00;;;;;;;5.25;1.10;;;23.60;60.40;;;;;;4492079;31;20085;-67
2022/06/28 09:36:27;;;;;;;5.47;0.63;;;23.60;60.30;;;;;;4491986;31;20484;-67
2022/06/28 09:38:56;;;;;;;1.67;0.50;;;23.60;59.90;;;;;;4491685;31;20238;-67
2022/06/28 09:41:26;;;;;;;3.03;0.80;;;23.60;59.70;;;;;;4492308;31;20221;-69
2022/06/28 09:43:58;;;;;;;4.03;0.95;;;23.60;59.40;;;;;;4491783;31;20082;-68
2022/06/28 09:46:26;;;;;;;3.70;0.70;;;23.70;59.20;;;;;;4491607;32;20103;-68
2022/06/28 09:49:04;;;;;;;2.95;0.77;;;23.70;59.20;;;;;;4491852;31;20461;-68
2022/06/28 09:51:32;;;;;;;1.40;0.80;;;23.70;59.00;;;;;;4491635;32;20086;-68
2022/06/28 09:54:05;;;;;;;3.08;0.68;;;23.70;58.90;;;;;;4492009;32;20073;-68
2022/06/28 09:56:41;;;;;;;4.20;1.02;;;23.80;59.90;;;;;;4490542;32;20258;-68
2022/06/28 09:59:08;;;;;;;2.78;0.60;;;23.80;58.90;;;;;;4491991;32;20568;-68
2022/06/28 10:01:35;;;;;;;3.50;0.90;;;23.80;58.90;;;;;;4491690;32;20097;-68
2022/06/28 10:04:01;;;;;;;3.70;1.13;;;23.80;58.90;;;;;;4490736;32;20077;-67
2022/06/28 10:06:27;;;;;;;3.13;0.75;;;23.80;58.70;;;;;;4492095;32;20387;-68
2022/06/28 10:08:53;;;;;;;3.10;0.80;;;23.80;58.60;;;;;;4491866;32;20080;-68
2022/06/28 10:11:19;;;;;;;3.30;0.70;;;23.80;58.50;;;;;;4491707;32;20069;-67
2022/06/28 10:16:45;;;;;;;3.42;0.77;;;23.90;58.30;;;;;;4494699;31;20547;-68
2022/06/28 10:19:21;;;;;;;3.60;0.80;;;23.90;57.90;;;;;;4494578;31;20081;-68
2022/06/28 10:22:08;;;;;;;3.72;0.90;;;23.90;58.20;;;;;;4493752;31;20231;-68
2022/06/28 10:24:53;;;;;;;4.55;1.10;;;23.90;57.40;;;;;;4495071;31;20218;-68
2022/06/28 10:27:19;;;;;;;3.72;0.95;;;23.90;57.30;;;;;;4495038;31;20165;-68
2022/06/28 10:30:00;;;;;;;3.13;0.80;;;23.90;57.60;;;;;;4494651;31;20070;-68
2022/06/28 10:32:47;;;;;;;2.25;0.68;;;23.90;57.20;;;;;;4494659;31;20246;-69
2022/06/28 10:35:31;;;;;;;3.92;0.98;;;23.90;57.30;;;;;;4493296;31;20120;-69
2022/06/28 10:38:09;;;;;;;3.75;0.82;;;23.90;57.30;;;;;;4494728;31;20073;-68
2022/06/28 10:40:50;;;;;;;2.50;0.80;;;23.80;57.60;;;;;;4494725;31;20094;-67
2022/06/28 10:43:44;;;;;;;3.30;0.98;;;23.90;57.80;;;;;;4494579;31;20073;-67
2022/06/28 10:46:11;;;;;;;2.22;1.05;;;23.90;57.20;;;;;;4494493;31;20586;-68
2022/06/28 10:48:48;;;;;;;3.70;0.75;;;23.90;57.30;;;;;;4494274;31;20533;-68
2022/06/28 10:51:15;;;;;;;4.57;0.73;;;23.90;56.70;;;;;;4494777;31;20135;-68
2022/06/28 10:54:02;;;;;;;2.00;0.73;;;23.90;56.70;;;;;;4494080;31;20089;-67
2022/06/28 10:56:35;;;;;;;5.32;0.88;;;23.90;56.10;;;;;;4494417;31;20085;-67
2022/06/28 10:59:13;;;;;;;3.15;0.90;;;23.90;56.30;;;;;;4494635;31;20085;-67
2022/06/28 11:01:39;;;;;;;5.70;1.25;;;23.90;56.00;;;;;;4494233;31;20088;-67
2022/06/28 11:04:11;;;;;;;7.38;1.08;;;23.90;56.20;;;;;;4493897;31;20069;-69
2022/06/28 11:06:42;;;;;;;3.33;1.00;;;23.90;56.00;;;;;;4494151;31;20081;-68
2022/06/28 11:09:24;;;;;;;1.95;0.68;;;23.90;56.00;;;;;;4493049;31;20387;-69
2022/06/28 11:12:06;;;;;;;6.18;0.98;;;23.90;55.90;;;;;;4493880;31;20095;-68
2022/06/28 11:14:36;;;;;;;4.35;0.93;;;23.90;55.40;;;;;;4494135;31;20142;-68
2022/06/28 11:17:17;;;;;;;5.10;1.25;;;23.90;55.60;;;;;;4494043;31;20595;-67
2022/06/28 11:19:51;;;;;;;3.20;0.60;;;24.00;55.30;;;;;;4493968;31;20105;-67
2022/06/28 11:22:44;;;;;;;3.67;0.80;;;24.00;55.50;;;;;;4493893;31;20516;-69
2022/06/28 11:25:12;;;;;;;2.90;0.93;;;24.00;55.60;;;;;;4492571;31;20411;-69
2022/06/28 11:27:57;;;;;;;4.10;0.90;;;24.00;55.60;;;;;;4493618;31;20084;-68
2022/06/28 11:30:28;;;;;;;3.20;0.80;;;24.00;55.30;;;;;;4494364;31;20101;-69
2022/06/28 11:32:56;;;;;;;3.08;0.82;;;24.00;55.40;;;;;;4494175;31;20206;-68
2022/06/28 11:35:30;;;;;;;2.70;0.60;;;24.00;55.50;;;;;;4493640;31;20091;-68
2022/06/28 11:38:03;;;;;;;3.67;1.13;;;24.00;55.40;;;;;;4493376;31;20226;-69
2022/06/28 11:40:41;;;;;;;4.47;1.10;;;24.00;55.30;;;;;;4493464;31;20084;-68
2022/06/28 11:43:11;;;;;;;4.80;1.02;;;24.00;54.90;;;;;;4493316;31;20088;-67
2022/06/28 11:45:39;;;;;;;4.80;1.00;;;24.00;54.80;;;;;;4492613;31;20120;-68
2022/06/28 11:48:09;;;;;;;5.50;1.10;;;24.00;54.50;;;;;;4493317;31;20532;-69
2022/06/28 11:50:58;;;;;;;4.38;0.80;;;24.00;54.30;;;;;;4493305;31;20099;-68
2022/06/28 11:53:25;;;;;;;4.38;0.95;;;24.00;54.00;;;;;;4493648;31;20081;-68
2022/06/28 11:55:58;;;;;;;5.65;1.08;;;24.00;54.20;;;;;;4493580;31;20089;-67
2022/06/28 11:58:31;;;;;;;3.92;1.33;;;24.10;54.10;;;;;;4493017;31;20277;-68
2022/06/28 12:01:11;;;;;;;2.95;0.93;;;24.10;54.30;;;;;;4493623;31;20622;-67
2022/06/28 12:03:56;;;;;;;2.58;0.90;;;24.10;54.10;;;;;;4493095;31;20199;-67
2022/06/28 12:06:29;;;;;;;3.80;0.93;;;24.10;53.70;;;;;;4493129;31;20061;-67
2022/06/28 12:08:55;;;;;;;2.70;0.73;;;24.10;53.80;;;;;;4493107;31;20069;-68
2022/06/28 12:11:41;;;;;;;3.03;0.77;;;24.10;53.80;;;;;;4492985;31;20077;-67
2022/06/28 12:14:07;;;;;;;2.13;0.93;;;24.10;53.60;;;;;;4493090;31;20084;-68
2022/06/28 12:16:33;;;;;;;3.25;1.08;;;24.10;53.80;;;;;;4492879;31;20112;-68
2022/06/28 12:19:01;;;;;;;3.30;1.20;;;24.10;53.80;;;;;;4493691;31;20170;-68
2022/06/28 12:21:28;;;;;;;3.97;0.90;;;24.10;53.70;;;;;;4492926;31;20414;-67
2022/06/28 12:23:56;;;;;;;2.40;0.90;;;24.10;53.60;;;;;;4492646;31;20097;-67
2022/06/28 12:26:36;;;;;;;3.03;0.93;;;24.10;53.50;;;;;;4493184;31;20073;-68
2022/06/28 12:29:02;;;;;;;3.47;0.88;;;24.10;53.50;;;;;;4492561;31;20201;-68
2022/06/28 12:31:28;;;;;;;5.47;0.95;;;24.10;53.70;;;;;;4492780;31;20088;-67
2022/06/28 12:33:54;;;;;;;3.10;0.80;;;24.20;53.70;;;;;;4492639;31;20154;-68
2022/06/28 12:36:19;;;;;;;5.85;1.20;;;24.20;53.80;;;;;;4491986;31;20061;-67
2022/06/28 12:38:45;;;;;;;4.50;1.23;;;24.20;53.80;;;;;;4492471;31;20384;-67
2022/06/28 12:41:11;;;;;;;7.20;1.20;;;24.20;53.80;;;;;;4492750;31;20127;-67
2022/06/28 12:43:37;;;;;;;3.67;0.95;;;24.20;53.80;;;;;;4492117;31;20077;-67
2022/06/28 12:46:02;;;;;;;3.30;1.00;;;24.20;53.90;;;;;;4493029;31;20109;-69
2022/06/28 12:48:28;;;;;;;3.53;0.95;;;24.20;54.00;;;;;;4491370;31;20084;-69
2022/06/28 12:50:54;;;;;;;4.05;0.95;;;24.20;53.90;;;;;;4492416;31;20073;-70
2022/06/28 12:53:20;;;;;;;3.70;1.20;;;24.20;53.70;;;;;;4491370;31;20073;-70
2022/06/28 12:55:46;;;;;;;2.00;0.80;;;24.30;54.00;;;;;;4492644;31;20136;-70
2022/06/28 12:58:12;;;;;;;4.05;0.73;;;24.30;53.90;;;;;;4491035;31;20081;-70
2022/06/28 13:00:38;;;;;;;5.43;0.98;;;24.30;53.80;;;;;;4492595;31;20116;-71
2022/06/28 13:03:05;;;;;;;2.92;1.00;;;24.30;53.80;;;;;;4492328;31;20514;-70
2022/06/28 13:05:31;;;;;;;1.20;0.75;;;24.30;53.60;;;;;;4492281;31;20095;-70